createdAt,value
2019-02-16T00:01:00.657Z,102057.89
2019-02-16T00:03:29.948Z,102057.64
2019-02-16T00:05:59.183Z,102059.17
2019-02-16T00:11:55.386Z,102061.52
2019-02-16T00:14:24.611Z,102063.33
2019-02-16T00:16:53.830Z,102062.28
2019-02-16T00:22:31.564Z,102064.81
2019-02-16T00:25:00.784Z,102060.52
2019-02-16T00:27:30.043Z,102052.11
2019-02-16T00:30:18.626Z,102058.44
2019-02-16T00:36:02.378Z,102061.19
2019-02-16T00:38:31.578Z,102056.91
2019-02-16T00:41:00.788Z,102054.02
2019-02-16T00:43:30.028Z,102053.86
2019-02-16T00:46:39.301Z,102053.80
2019-02-16T00:49:27.879Z,102048.29
2019-02-16T00:51:57.123Z,102053.20
2019-02-16T00:54:45.684Z,102048.70
2019-02-16T00:57:34.258Z,102046.48
2019-02-16T01:00:43.571Z,102051.17
2019-02-16T01:03:12.786Z,102046.95
2019-02-16T01:06:01.356Z,102040.23
2019-02-16T01:08:49.692Z,102034.19
2019-02-16T01:11:38.282Z,102033.11
2019-02-16T01:14:07.510Z,102027.43
2019-02-16T01:16:36.755Z,102029.11
2019-02-16T01:19:05.973Z,102030.19
2019-02-16T01:21:35.209Z,102021.59
2019-02-16T01:24:04.433Z,102021.45
2019-02-16T01:26:52.998Z,102019.22
2019-02-16T01:29:22.206Z,102022.38
2019-02-16T01:31:51.464Z,102028.42
2019-02-16T01:34:40.044Z,102026.66
2019-02-16T01:39:55.959Z,102011.25
2019-02-16T01:42:25.286Z,102017.51
2019-02-16T01:45:13.867Z,102009.13
2019-02-16T01:47:43.105Z,102012.95
2019-02-16T01:50:12.401Z,102007.78
2019-02-16T01:52:41.666Z,102008.83
2019-02-16T01:55:30.239Z,102009.36
2019-02-16T01:57:59.518Z,102003.02
2019-02-16T02:00:28.768Z,101996.75
2019-02-16T02:03:17.356Z,101998.95
2019-02-16T02:05:46.602Z,101983.56
2019-02-16T02:08:15.889Z,101988.73
2019-02-16T02:10:45.126Z,101988.95
2019-02-16T02:13:14.388Z,101984.55
2019-02-16T02:16:02.953Z,101980.92
2019-02-16T02:18:32.233Z,101979.16
2019-02-16T02:21:01.469Z,101978.86
2019-02-16T02:23:30.747Z,101987.88
2019-02-16T02:26:19.344Z,101981.40
2019-02-16T02:29:07.992Z,101984.72
2019-02-16T02:31:37.675Z,101989.42
2019-02-16T02:34:27.305Z,101985.38
2019-02-16T02:40:47.672Z,101983.47
2019-02-16T02:43:16.945Z,101983.86
2019-02-16T02:45:46.195Z,101988.55
2019-02-16T02:48:15.453Z,101987.11
2019-02-16T02:51:04.049Z,101983.52
2019-02-16T02:53:33.332Z,101984.11
2019-02-16T03:00:24.208Z,101983.17
2019-02-16T03:02:53.449Z,101977.91
2019-02-16T03:05:42.112Z,101979.91
2019-02-16T03:11:00.536Z,101977.91
2019-02-16T03:13:29.783Z,101976.23
2019-02-16T03:15:59.067Z,101980.38
2019-02-16T03:18:28.305Z,101974.30
2019-02-16T03:20:57.598Z,101970.05
2019-02-16T03:23:26.853Z,101968.08
2019-02-16T03:26:36.210Z,101962.81
2019-02-16T03:29:45.523Z,101967.17
2019-02-16T03:32:53.522Z,101971.97
2019-02-16T03:36:19.024Z,101967.51
2019-02-16T03:39:28.316Z,101971.45
2019-02-16T03:42:16.911Z,101966.45
2019-02-16T03:44:46.156Z,101967.41
2019-02-16T03:47:34.777Z,101963.82
2019-02-16T03:50:44.061Z,101961.23
2019-02-16T03:53:32.648Z,101961.52
2019-02-16T03:56:01.941Z,101956.48
2019-02-16T03:58:31.222Z,101956.38
2019-02-16T04:01:19.817Z,101952.55
2019-02-16T04:03:49.092Z,101959.26
2019-02-16T04:06:18.339Z,101960.27
2019-02-16T04:09:06.962Z,101960.09
2019-02-16T04:11:36.191Z,101957.83
2019-02-16T04:14:05.461Z,101957.83
2019-02-16T04:16:34.701Z,101950.58
2019-02-16T04:19:23.280Z,101951.92
2019-02-16T04:21:52.527Z,101944.89
2019-02-16T04:24:21.776Z,101948.09
2019-02-16T04:27:10.329Z,101945.83
2019-02-16T04:29:58.936Z,101942.62
2019-02-16T04:32:47.497Z,101943.95
2019-02-16T04:35:36.144Z,101941.80
2019-02-16T04:38:24.735Z,101946.53
2019-02-16T04:40:53.985Z,101950.07
2019-02-16T04:43:23.207Z,101946.97
2019-02-16T04:45:52.461Z,101948.21
2019-02-16T04:48:21.689Z,101931.93
2019-02-16T04:50:50.934Z,101939.87
2019-02-16T04:53:20.160Z,101935.81
2019-02-16T04:56:08.757Z,101932.79
2019-02-16T04:58:57.339Z,101921.73
2019-02-16T05:01:45.913Z,101922.41
2019-02-16T05:04:34.487Z,101924.08
2019-02-16T05:07:03.730Z,101925.39
2019-02-16T05:09:52.299Z,101908.37
2019-02-16T05:12:21.541Z,101913.62
2019-02-16T05:14:50.776Z,101918.00
2019-02-16T05:17:20.003Z,101921.91
2019-02-16T05:19:49.239Z,101925.56
2019-02-16T05:22:18.481Z,101937.92
2019-02-16T05:25:07.065Z,101933.27
2019-02-16T05:27:36.296Z,101926.13
2019-02-16T05:30:45.542Z,101931.94
2019-02-16T05:33:34.128Z,101933.56
2019-02-16T05:38:52.041Z,101929.94
2019-02-16T05:44:10.440Z,101943.03
2019-02-16T05:46:39.658Z,101943.98
2019-02-16T05:49:08.903Z,101939.04
2019-02-16T05:51:38.148Z,101937.09
2019-02-16T05:54:26.728Z,101940.69
2019-02-16T05:57:15.379Z,101934.77
2019-02-16T05:59:44.619Z,101928.61
2019-02-16T06:02:33.177Z,101933.42
2019-02-16T06:05:02.419Z,101936.17
2019-02-16T06:07:31.644Z,101929.28
2019-02-16T06:10:00.904Z,101931.84
2019-02-16T06:12:30.127Z,101934.20
2019-02-16T06:14:59.372Z,101928.37
2019-02-16T06:17:47.929Z,101925.84
2019-02-16T06:20:17.163Z,101931.02
2019-02-16T06:22:46.375Z,101943.24
2019-02-16T06:25:34.971Z,101949.67
2019-02-16T06:28:23.538Z,101951.94
2019-02-16T06:31:12.102Z,101941.13
2019-02-16T06:34:00.667Z,101946.80
2019-02-16T06:36:49.308Z,101943.92
2019-02-16T06:39:37.904Z,101950.59
2019-02-16T06:42:07.136Z,101947.91
2019-02-16T06:44:49.083Z,101943.22
2019-02-16T06:47:18.325Z,101943.10
2019-02-16T06:50:06.942Z,101952.85
2019-02-16T06:52:55.474Z,101954.99
2019-02-16T06:58:53.031Z,101954.51
2019-02-16T07:01:41.653Z,101957.52
2019-02-16T07:04:30.214Z,101967.95
2019-02-16T07:07:18.785Z,101961.38
2019-02-16T07:10:27.553Z,101964.14
2019-02-16T07:13:16.178Z,101963.72
2019-02-16T07:16:23.871Z,101958.23
2019-02-16T07:22:11.167Z,101966.27
2019-02-16T07:31:24.762Z,101993.92
2019-02-16T07:33:53.998Z,102003.07
2019-02-16T07:36:42.588Z,102009.89
2019-02-16T07:39:11.833Z,102005.81
2019-02-16T07:42:00.403Z,102000.30
2019-02-16T07:45:00.698Z,102004.78
2019-02-16T07:50:38.902Z,102015.22
2019-02-16T07:59:54.421Z,102011.10
2019-02-16T08:03:02.124Z,102017.65
2019-02-16T08:05:50.485Z,102016.15
2019-02-16T08:08:38.834Z,102025.55
2019-02-16T08:11:27.242Z,102023.86
2019-02-16T08:14:36.863Z,102022.29
2019-02-16T08:18:02.404Z,102025.16
2019-02-16T08:24:19.274Z,102021.03
2019-02-16T08:27:07.631Z,102027.67
2019-02-16T08:29:56.949Z,102018.25
2019-02-16T08:33:04.654Z,102017.64
2019-02-16T08:49:09.209Z,102025.70
2019-02-16T08:52:16.891Z,102019.41
2019-02-16T08:58:03.799Z,102018.77
2019-02-16T09:01:11.486Z,102011.50
2019-02-16T09:04:19.169Z,102020.41
2019-02-16T09:10:16.542Z,102008.22
2019-02-16T09:13:24.233Z,102013.23
2019-02-16T09:25:21.093Z,102015.10
2019-02-16T09:28:29.805Z,102017.89
2019-02-16T09:41:05.825Z,102017.04
2019-02-16T09:44:06.592Z,102023.28
2019-02-16T09:46:55.045Z,102027.20
2019-02-16T09:50:02.736Z,102037.03
2019-02-16T09:53:10.426Z,102028.86
2019-02-16T09:56:18.126Z,102024.08
2019-02-16T09:59:25.832Z,102019.63
2019-02-16T10:02:33.517Z,102034.56
2019-02-16T10:16:53.568Z,102349.27
2019-02-16T10:32:14.482Z,102345.80
2019-02-16T10:34:58.261Z,102352.31
2019-02-16T10:37:29.153Z,102362.19
2019-02-16T10:40:15.086Z,102367.50
2019-02-16T10:42:54.670Z,102360.41
2019-02-16T10:45:48.955Z,102351.17
2019-02-16T10:48:22.526Z,102351.83
2019-02-16T10:50:56.445Z,102348.17
2019-02-16T10:53:27.329Z,102345.68
2019-02-16T10:55:59.236Z,102336.83
2019-02-16T10:58:33.139Z,102343.38
2019-02-16T11:01:06.765Z,102337.62
2019-02-16T11:03:48.638Z,102332.98
2019-02-16T11:06:25.075Z,102337.08
2019-02-16T11:08:55.968Z,102334.53
2019-02-16T11:11:47.268Z,102326.25
2019-02-16T11:14:23.826Z,102320.38
2019-02-16T11:17:09.202Z,102323.05
2019-02-16T11:19:40.085Z,102327.58
2019-02-16T11:22:11.889Z,102323.47
2019-02-16T11:24:45.984Z,102320.23
2019-02-16T11:27:16.873Z,102323.09
2019-02-16T11:30:14.501Z,102319.27
2019-02-16T11:32:45.454Z,102324.94
2019-02-16T11:35:16.406Z,102315.20
2019-02-16T11:38:04.502Z,102310.96
2019-02-16T11:40:57.884Z,102306.48
2019-02-16T11:43:31.571Z,102305.38
2019-02-16T11:46:02.554Z,102298.05
2019-02-16T11:48:35.912Z,102302.51
2019-02-16T11:51:12.622Z,102298.10
2019-02-16T11:53:43.561Z,102296.10
2019-02-16T11:56:14.463Z,102293.09
2019-02-16T11:58:52.198Z,102294.35
2019-02-16T12:01:23.097Z,102294.01
2019-02-16T12:04:09.222Z,102291.91
2019-02-16T12:06:40.155Z,102290.83
2019-02-16T12:09:16.912Z,102280.44
2019-02-16T12:11:50.260Z,102277.41
2019-02-16T12:14:21.121Z,102278.84
2019-02-16T12:17:01.827Z,102277.41
2019-02-16T12:19:35.408Z,102288.02
2019-02-16T12:22:09.297Z,102286.16
2019-02-16T12:24:43.143Z,102275.32
2019-02-16T12:27:26.252Z,102271.13
2019-02-16T12:30:13.323Z,102260.48
2019-02-16T12:32:44.236Z,102263.73
2019-02-16T12:35:15.193Z,102272.66
2019-02-16T12:37:46.103Z,102270.94
2019-02-16T12:40:19.735Z,102268.75
2019-02-16T12:42:53.477Z,102261.73
2019-02-16T12:45:27.548Z,102253.20
2019-02-16T12:48:24.440Z,102255.09
2019-02-16T12:51:17.330Z,102259.23
2019-02-16T12:54:03.163Z,102259.93
2019-02-16T12:56:50.769Z,102256.61
2019-02-16T12:59:24.677Z,102252.77
2019-02-16T13:01:58.260Z,102253.55
2019-02-16T13:04:38.200Z,102248.06
2019-02-16T13:07:21.077Z,102250.63
2019-02-16T13:09:54.418Z,102247.55
2019-02-16T13:12:35.373Z,102242.52
2019-02-16T13:15:22.257Z,102242.47
2019-02-16T13:18:01.868Z,102235.25
2019-02-16T13:20:32.811Z,102237.70
2019-02-16T13:23:12.476Z,102228.03
2019-02-16T13:25:50.409Z,102224.25
2019-02-16T13:28:21.287Z,102223.58
2019-02-16T13:31:00.650Z,102229.48
2019-02-16T13:33:47.681Z,102226.20
2019-02-16T13:36:32.580Z,102233.08
2019-02-16T13:39:09.478Z,102236.08
2019-02-16T13:41:43.273Z,102229.61
2019-02-16T13:44:14.133Z,102228.52
2019-02-16T13:46:56.778Z,102229.28
2019-02-16T13:49:35.748Z,102238.52
2019-02-16T13:52:28.656Z,102228.94
2019-02-16T13:55:00.431Z,102228.78
2019-02-16T13:57:51.676Z,102231.56
2019-02-16T14:00:22.905Z,102222.25
2019-02-16T14:03:13.223Z,102225.30
2019-02-16T14:05:46.776Z,102219.55
2019-02-16T14:08:20.594Z,102214.75
2019-02-16T14:11:06.401Z,102212.95
2019-02-16T14:13:52.527Z,102217.35
2019-02-16T14:16:23.422Z,102213.55
2019-02-16T14:18:52.662Z,102218.45
2019-02-16T14:21:22.042Z,102215.67
2019-02-16T14:23:51.786Z,102214.31
2019-02-16T14:26:21.154Z,102214.89
2019-02-16T14:28:50.435Z,102222.81
2019-02-16T14:31:28.042Z,102221.23
2019-02-16T14:33:50.974Z,102211.38
2019-02-16T14:36:25.036Z,102214.00
2019-02-16T14:38:58.673Z,102205.16
2019-02-16T14:41:33.623Z,102216.47
2019-02-16T14:44:14.485Z,102209.61
2019-02-16T14:46:51.093Z,102213.30
2019-02-16T14:49:21.505Z,102208.03
2019-02-16T14:51:50.841Z,102209.92
2019-02-16T14:54:20.263Z,102211.53
2019-02-16T14:56:59.748Z,102207.40
2019-02-16T14:59:31.608Z,102208.56
2019-02-16T15:02:01.047Z,102215.57
2019-02-16T15:04:30.299Z,102208.84
2019-02-16T15:07:11.694Z,102207.33
2019-02-16T15:09:41.235Z,102204.11
2019-02-16T15:12:18.202Z,102202.91
2019-02-16T15:14:49.544Z,102200.34
2019-02-16T15:17:19.199Z,102201.03
2019-02-16T15:19:57.469Z,102205.11
2019-02-16T15:22:26.702Z,102197.38
2019-02-16T15:25:02.715Z,102206.97
2019-02-16T15:27:31.970Z,102206.24
2019-02-16T15:30:01.502Z,102200.47
2019-02-16T15:32:30.789Z,102200.75
2019-02-16T15:35:00.322Z,102200.20
2019-02-16T15:37:31.468Z,102196.39
2019-02-16T15:40:00.765Z,102190.23
2019-02-16T15:42:29.998Z,102191.01
2019-02-16T15:44:59.232Z,102190.88
2019-02-16T15:47:43.205Z,102192.89
2019-02-16T15:50:21.785Z,102197.75
2019-02-16T15:53:02.212Z,102191.77
2019-02-16T15:55:33.439Z,102181.81
2019-02-16T15:58:02.695Z,102187.30
2019-02-16T16:00:39.118Z,102187.72
2019-02-16T16:03:08.418Z,102182.39
2019-02-16T16:05:37.645Z,102184.12
2019-02-16T16:08:08.522Z,102183.89
2019-02-16T16:10:51.417Z,102178.31
2019-02-16T16:13:44.617Z,102179.03
2019-02-16T16:16:35.083Z,102183.75
2019-02-16T16:19:18.772Z,102181.27
2019-02-16T16:21:49.652Z,102183.90
2019-02-16T16:24:38.608Z,102181.98
2019-02-16T16:27:25.710Z,102188.38
2019-02-16T16:30:04.502Z,102181.97
2019-02-16T16:32:35.380Z,102177.51
2019-02-16T16:35:27.736Z,102177.18
2019-02-16T16:38:10.679Z,102179.70
2019-02-16T16:40:44.600Z,102179.62
2019-02-16T16:43:15.464Z,102181.62
2019-02-16T16:46:03.695Z,102178.78
2019-02-16T16:48:43.322Z,102169.37
2019-02-16T16:51:16.668Z,102175.36
2019-02-16T16:53:50.251Z,102176.22
2019-02-16T16:56:28.343Z,102179.69
2019-02-16T16:59:10.192Z,102179.05
2019-02-16T17:01:47.933Z,102179.44
2019-02-16T17:04:21.361Z,102185.27
2019-02-16T17:06:59.280Z,102180.45
2019-02-16T17:09:41.977Z,102185.27
2019-02-16T17:12:21.915Z,102186.34
2019-02-16T17:15:02.030Z,102185.19
2019-02-16T17:17:49.382Z,102184.69
2019-02-16T17:20:31.995Z,102185.14
2019-02-16T17:23:09.867Z,102185.77
2019-02-16T17:25:52.567Z,102184.00
2019-02-16T17:28:28.030Z,102178.73
2019-02-16T17:31:14.775Z,102182.17
2019-02-16T17:33:51.724Z,102181.73
2019-02-16T17:36:55.849Z,102182.73
2019-02-16T17:39:26.755Z,102183.42
2019-02-16T17:42:19.109Z,102192.44
2019-02-16T17:44:55.809Z,102187.77
2019-02-16T17:47:41.714Z,102186.66
2019-02-16T17:50:15.277Z,102191.98
2019-02-16T17:53:12.488Z,102193.77
2019-02-16T17:55:43.356Z,102203.89
2019-02-16T17:58:17.908Z,102208.88
2019-02-16T18:00:48.794Z,102207.02
2019-02-16T18:03:19.674Z,102212.34
2019-02-16T18:05:50.745Z,102211.39
2019-02-16T18:08:27.534Z,102211.92
2019-02-16T18:10:58.397Z,102208.18
2019-02-16T18:13:39.208Z,102209.53
2019-02-16T18:16:13.038Z,102208.12
2019-02-16T18:18:43.904Z,102214.14
2019-02-16T18:21:16.746Z,102211.44
2019-02-16T18:23:50.647Z,102214.66
2019-02-16T18:26:21.530Z,102216.45
2019-02-16T18:28:57.419Z,102213.09
2019-02-16T18:31:26.039Z,102216.40
2019-02-16T18:33:56.935Z,102216.78
2019-02-16T18:36:45.041Z,102216.03
2019-02-16T18:39:27.839Z,102220.97
2019-02-16T18:42:01.508Z,102218.86
2019-02-16T18:44:36.790Z,102216.39
2019-02-16T18:47:25.511Z,102213.57
2019-02-16T18:50:10.960Z,102205.30
2019-02-16T18:52:51.951Z,102200.67
2019-02-16T18:55:33.032Z,102200.50
2019-02-16T18:58:21.166Z,102197.58
2019-02-16T19:00:56.699Z,102198.04
2019-02-16T19:03:33.110Z,102204.88
2019-02-16T19:06:03.949Z,102203.77
2019-02-16T19:08:51.240Z,102193.34
2019-02-16T19:11:36.429Z,102195.84
2019-02-16T19:14:16.275Z,102203.22
2019-02-16T19:16:47.150Z,102200.44
2019-02-16T19:19:18.161Z,102206.34
2019-02-16T19:21:55.266Z,102205.95
2019-02-16T19:24:31.736Z,102202.59
2019-02-16T19:27:16.598Z,102203.28
2019-02-16T19:30:27.139Z,102202.20
2019-02-16T19:33:10.237Z,102200.30
2019-02-16T19:35:42.182Z,102208.48
2019-02-16T19:38:45.170Z,102208.38
2019-02-16T19:41:19.290Z,102206.33
2019-02-16T19:44:17.988Z,102203.83
2019-02-16T19:46:55.236Z,102204.28
2019-02-16T19:49:26.152Z,102198.82
2019-02-16T19:52:05.787Z,102202.66
2019-02-16T19:54:52.654Z,102206.02
2019-02-16T19:57:43.333Z,102209.28
2019-02-16T20:00:30.733Z,102214.66
2019-02-16T20:03:23.831Z,102203.77
2019-02-16T20:06:03.502Z,102209.86
2019-02-16T20:08:52.128Z,102204.38
2019-02-16T20:11:31.669Z,102208.47
2019-02-16T20:14:27.114Z,102210.95
2019-02-16T20:17:01.045Z,102204.33
2019-02-16T20:19:48.438Z,102197.95
2019-02-16T20:22:34.367Z,102199.80
2019-02-16T20:25:20.462Z,102199.13
2019-02-16T20:28:11.145Z,102200.14
2019-02-16T20:30:52.848Z,102202.44
2019-02-16T20:33:26.277Z,102196.52
2019-02-16T20:36:26.428Z,102194.67
2019-02-16T20:39:13.336Z,102193.82
2019-02-16T20:41:50.809Z,102197.35
2019-02-16T20:44:25.000Z,102189.11
2019-02-16T20:46:55.872Z,102192.98
2019-02-16T20:49:43.279Z,102191.22
2019-02-16T20:52:16.254Z,102189.77
2019-02-16T20:55:05.938Z,102195.39
2019-02-16T20:57:47.447Z,102192.97
2019-02-16T21:00:13.383Z,102195.56
2019-02-16T21:02:49.995Z,102194.72
2019-02-16T21:05:43.936Z,102191.64
2019-02-16T21:08:21.820Z,102192.63
2019-02-16T21:11:09.339Z,102193.48
2019-02-16T21:13:51.697Z,102188.80
2019-02-16T21:16:24.147Z,102189.34
2019-02-16T21:18:55.078Z,102188.25
2019-02-16T21:21:37.930Z,102187.31
2019-02-16T21:24:17.410Z,102181.74
2019-02-16T21:27:06.171Z,102185.31
2019-02-16T21:29:39.045Z,102184.19
2019-02-16T21:32:28.855Z,102182.73
2019-02-16T21:35:14.683Z,102185.36
2019-02-16T21:37:57.928Z,102186.53
2019-02-16T21:40:36.882Z,102181.39
2019-02-16T21:43:09.722Z,102182.08
2019-02-16T21:45:42.551Z,102186.77
2019-02-16T21:48:25.337Z,102185.30
2019-02-16T21:51:22.441Z,102190.30
2019-02-16T21:54:09.549Z,102193.50
2019-02-16T21:56:40.430Z,102192.62
2019-02-16T21:59:19.153Z,102198.50
2019-02-16T22:01:59.982Z,102192.43
2019-02-16T22:04:33.623Z,102202.52
2019-02-16T22:07:10.565Z,102199.06
2019-02-16T22:10:03.570Z,102198.22
2019-02-16T22:12:40.222Z,102197.00
2019-02-16T22:15:14.127Z,102195.75
2019-02-16T22:17:49.092Z,102189.16
2019-02-16T22:20:18.343Z,102192.73
2019-02-16T22:22:47.575Z,102198.70
2019-02-16T22:25:18.841Z,102195.90
2019-02-16T22:27:47.751Z,102201.98
2019-02-16T22:30:17.008Z,102205.16
2019-02-16T22:32:50.907Z,102200.61
2019-02-16T22:35:41.390Z,102211.09
2019-02-16T22:38:33.800Z,102207.27
2019-02-16T22:41:03.058Z,102208.16
2019-02-16T22:43:34.250Z,102203.58
2019-02-16T22:46:03.476Z,102204.95
2019-02-16T22:48:34.663Z,102205.07
2019-02-16T22:51:03.911Z,102198.82
2019-02-16T22:53:39.011Z,102197.41
2019-02-16T22:56:08.264Z,102201.80
2019-02-16T22:58:37.493Z,102204.02
2019-02-16T23:01:06.729Z,102201.80
2019-02-16T23:03:37.211Z,102206.34
2019-02-16T23:06:13.471Z,102200.31
2019-02-16T23:08:43.715Z,102207.67
2019-02-16T23:11:16.079Z,102200.61
2019-02-16T23:13:45.328Z,102196.96
2019-02-16T23:16:14.562Z,102192.80
2019-02-16T23:18:43.818Z,102192.31
2019-02-16T23:21:13.042Z,102182.23
2019-02-16T23:23:43.221Z,102193.64
2019-02-16T23:26:14.426Z,102184.98
2019-02-16T23:28:51.636Z,102186.66
2019-02-16T23:31:21.666Z,102184.39
2019-02-16T23:34:02.251Z,102184.39
2019-02-16T23:36:31.563Z,102186.02
2019-02-16T23:39:18.127Z,102175.78
2019-02-16T23:41:47.344Z,102176.64
2019-02-16T23:44:16.672Z,102170.40
2019-02-16T23:46:45.891Z,102168.23
2019-02-16T23:49:52.372Z,102169.06
2019-02-16T23:52:21.781Z,102160.52
2019-02-16T23:54:59.995Z,102157.70
2019-02-16T23:57:29.312Z,102159.34
2019-02-16T23:59:58.744Z,102162.85
